createdAt,value
2022-12-09T00:01:31.602Z,97003.34
2022-12-09T00:04:00.903Z,97011.13
2022-12-09T00:06:31.871Z,97007.13
2022-12-09T00:09:01.171Z,97011.13
2022-12-09T00:11:30.228Z,97001.91
2022-12-09T00:14:00.239Z,97009.09
2022-12-09T00:16:29.064Z,96988.88
2022-12-09T00:18:59.081Z,96994.09
2022-12-09T00:21:33.354Z,97014.91
2022-12-09T00:24:05.979Z,97012.13
2022-12-09T00:26:35.369Z,97001.91
2022-12-09T00:29:05.175Z,97001.69
2022-12-09T00:31:36.650Z,97008.31
2022-12-09T00:34:09.565Z,96985.09
2022-12-09T00:36:40.997Z,96985.50
2022-12-09T00:39:13.262Z,96997.16
2022-12-09T00:41:42.651Z,97001.34
2022-12-09T00:44:12.410Z,96984.13
2022-12-09T00:46:41.827Z,97001.13
2022-12-09T00:49:11.757Z,96996.50
2022-12-09T00:51:40.665Z,96998.50
2022-12-09T00:54:10.260Z,96995.09
2022-12-09T00:56:39.177Z,96991.31
2022-12-09T00:59:08.435Z,96981.13
2022-12-09T01:01:37.942Z,96972.72
2022-12-09T01:04:09.114Z,96998.13
2022-12-09T01:06:38.451Z,96990.75
2022-12-09T01:09:07.490Z,96994.72
2022-12-09T01:11:36.535Z,96963.09
2022-12-09T01:14:05.717Z,96990.91
2022-12-09T01:16:36.410Z,96985.50
2022-12-09T01:19:09.449Z,97001.31
2022-12-09T01:21:38.921Z,96998.31
2022-12-09T01:24:12.165Z,97012.31
2022-12-09T01:26:41.624Z,96998.91
2022-12-09T01:29:10.479Z,97020.34
2022-12-09T01:31:39.394Z,97013.94
2022-12-09T01:34:08.786Z,96999.31
2022-12-09T01:36:37.907Z,97020.34
2022-12-09T01:39:07.628Z,97009.31
2022-12-09T01:41:36.857Z,97003.53
2022-12-09T01:44:15.038Z,97026.75
2022-12-09T01:46:45.400Z,97018.31
2022-12-09T01:49:20.414Z,97021.94
2022-12-09T01:51:57.060Z,97011.97
2022-12-09T01:54:26.754Z,97002.72
2022-12-09T01:56:56.699Z,97018.34
2022-12-09T01:59:27.132Z,97006.75
2022-12-09T02:02:00.083Z,97004.56
2022-12-09T02:04:34.245Z,97016.78
2022-12-09T02:07:09.396Z,97008.56
2022-12-09T02:09:40.932Z,97006.41
2022-12-09T02:12:18.126Z,97009.22
2022-12-09T02:15:07.561Z,97007.81
2022-12-09T02:17:42.532Z,97003.81
2022-12-09T02:20:28.350Z,97012.03
2022-12-09T02:23:33.952Z,97000.63
2022-12-09T02:26:25.104Z,97003.44
2022-12-09T02:29:19.613Z,96998.44
2022-12-09T02:31:49.339Z,96998.03
2022-12-09T02:34:24.463Z,97005.84
2022-12-09T02:37:21.952Z,96980.03
2022-12-09T02:39:55.078Z,96999.44
2022-12-09T02:42:31.780Z,96994.44
2022-12-09T02:45:06.381Z,96990.81
2022-12-09T02:47:42.513Z,96992.03
2022-12-09T02:50:17.430Z,96984.41
2022-12-09T02:52:50.036Z,96984.63
2022-12-09T02:55:21.923Z,97000.22
2022-12-09T02:57:58.986Z,96993.41
2022-12-09T03:00:29.600Z,96993.63
2022-12-09T03:03:07.746Z,97003.41
2022-12-09T03:06:00.215Z,96987.19
2022-12-09T03:08:29.763Z,96999.19
2022-12-09T03:11:11.268Z,96996.56
2022-12-09T03:14:06.865Z,96999.53
2022-12-09T03:16:38.414Z,96993.66
2022-12-09T03:19:35.660Z,96984.00
2022-12-09T03:22:12.342Z,96980.34
2022-12-09T03:24:54.395Z,96962.88
2022-12-09T03:27:29.894Z,96960.88
2022-12-09T03:30:00.938Z,96949.25
2022-12-09T03:32:33.957Z,96952.63
2022-12-09T03:35:10.050Z,96970.81
2022-12-09T03:37:41.582Z,96972.16
2022-12-09T03:40:15.556Z,96966.91
2022-12-09T03:42:53.648Z,96964.66
2022-12-09T03:45:26.072Z,96958.69
2022-12-09T03:47:55.774Z,96964.19
2022-12-09T03:50:29.556Z,96958.06
2022-12-09T03:53:05.811Z,96940.31
2022-12-09T03:55:40.822Z,96947.66
2022-12-09T03:58:13.336Z,96942.09
2022-12-09T04:00:44.696Z,96937.00
2022-12-09T04:03:15.691Z,96937.59
2022-12-09T04:05:45.078Z,96955.88
2022-12-09T04:08:14.098Z,96954.03
2022-12-09T04:10:43.604Z,96953.31
2022-12-09T04:13:12.505Z,96949.31
2022-12-09T04:15:41.797Z,96941.13
2022-12-09T04:18:10.842Z,96944.09
2022-12-09T04:20:39.835Z,96940.44
2022-12-09T04:23:08.734Z,96944.81
2022-12-09T04:25:38.447Z,96914.94
2022-12-09T04:28:07.307Z,96926.22
2022-12-09T04:30:36.283Z,96931.16
2022-12-09T04:33:05.822Z,96924.03
2022-12-09T04:35:34.893Z,96917.38
2022-12-09T04:38:04.415Z,96928.06
2022-12-09T04:40:33.278Z,96930.50
2022-12-09T04:43:02.504Z,96921.03
2022-12-09T04:45:31.880Z,96906.66
2022-12-09T04:48:01.280Z,96907.28
2022-12-09T04:50:30.393Z,96893.13
2022-12-09T04:52:59.807Z,96893.50
2022-12-09T04:55:28.833Z,96902.50
2022-12-09T04:57:57.800Z,96910.41
2022-12-09T05:00:28.055Z,96910.31
2022-12-09T05:02:57.453Z,96913.53
2022-12-09T05:05:26.927Z,96892.09
2022-12-09T05:07:56.129Z,96891.06
2022-12-09T05:10:25.859Z,96898.88
2022-12-09T05:12:55.575Z,96878.13
2022-12-09T05:15:24.567Z,96884.28
2022-12-09T05:17:54.716Z,96884.06
2022-12-09T05:20:24.280Z,96883.28
2022-12-09T05:22:53.257Z,96904.59
2022-12-09T05:25:22.769Z,96890.38
2022-12-09T05:27:51.952Z,96904.88
2022-12-09T05:30:20.851Z,96907.72
2022-12-09T05:32:50.129Z,96909.16
2022-12-09T05:35:19.392Z,96899.31
2022-12-09T05:37:49.167Z,96900.75
2022-12-09T05:40:18.453Z,96887.75
2022-12-09T05:42:47.938Z,96867.09
2022-12-09T05:45:17.426Z,96881.38
2022-12-09T05:47:46.985Z,96892.19
2022-12-09T05:50:16.842Z,96884.38
2022-12-09T05:52:46.630Z,96876.63
2022-12-09T05:55:15.455Z,96885.59
2022-12-09T05:57:44.808Z,96894.69
2022-12-09T06:00:15.889Z,96895.94
2022-12-09T06:02:45.415Z,96897.94
2022-12-09T06:05:14.922Z,96897.72
2022-12-09T06:07:44.808Z,96881.56
2022-12-09T06:10:14.594Z,96898.53
2022-12-09T06:12:44.223Z,96879.00
2022-12-09T06:15:18.722Z,96870.16
2022-12-09T06:17:50.524Z,96892.44
2022-12-09T06:20:19.565Z,96888.22
2022-12-09T06:22:48.529Z,96872.72
2022-12-09T06:25:17.955Z,96874.28
2022-12-09T06:27:46.860Z,96896.31
2022-12-09T06:30:16.173Z,96868.16
2022-12-09T06:32:45.284Z,96885.16
2022-12-09T06:35:15.407Z,96905.53
2022-12-09T06:37:44.934Z,96857.19
2022-12-09T06:40:14.553Z,96888.59
2022-12-09T06:42:43.886Z,96892.22
2022-12-09T06:45:13.512Z,96847.91
2022-12-09T06:47:43.619Z,96877.22
2022-12-09T06:50:13.916Z,96893.19
2022-12-09T06:52:43.033Z,96880.00
2022-12-09T06:55:13.105Z,96893.44
2022-12-09T06:57:42.537Z,96898.66
2022-12-09T07:00:12.841Z,96895.84
2022-12-09T07:02:42.644Z,96891.06
2022-12-09T07:05:12.188Z,96880.09
2022-12-09T07:07:42.572Z,96881.09
2022-12-09T07:10:12.184Z,96883.66
2022-12-09T07:12:43.030Z,96867.53
2022-12-09T07:15:12.929Z,96866.72
2022-12-09T07:17:42.681Z,96874.94
2022-12-09T07:20:13.321Z,96868.91
2022-12-09T07:22:42.528Z,96865.59
2022-12-09T07:25:12.290Z,96902.34
2022-12-09T07:27:41.700Z,96892.31
2022-12-09T07:30:11.607Z,96886.97
2022-12-09T07:32:43.714Z,96881.19
2022-12-09T07:35:12.957Z,96874.78
2022-12-09T07:37:43.247Z,96891.81
2022-12-09T07:40:12.493Z,96858.03
2022-12-09T07:42:42.316Z,96878.03
2022-12-09T07:45:12.857Z,96877.47
2022-12-09T07:47:42.528Z,96894.69
2022-12-09T07:50:13.020Z,96892.06
2022-12-09T07:52:42.300Z,96894.06
2022-12-09T07:55:11.760Z,96885.91
2022-12-09T07:57:44.927Z,96871.56
2022-12-09T08:00:15.993Z,96886.41
2022-12-09T08:02:45.233Z,96890.19
2022-12-09T08:05:14.953Z,96884.59
2022-12-09T08:07:45.456Z,96899.03
2022-12-09T08:10:17.225Z,96868.50
2022-12-09T08:12:46.778Z,96897.47
2022-12-09T08:15:17.785Z,96895.50
2022-12-09T08:17:47.238Z,96873.31
2022-12-09T08:20:17.250Z,96897.28
2022-12-09T08:22:48.104Z,96905.75
2022-12-09T08:25:18.501Z,96907.13
2022-12-09T08:27:47.709Z,96902.75
2022-12-09T08:30:18.835Z,96895.00
2022-12-09T08:32:49.278Z,96908.41
2022-12-09T08:35:20.393Z,96914.59
2022-12-09T08:37:50.293Z,96902.41
2022-12-09T08:40:19.290Z,96917.84
2022-12-09T08:42:48.520Z,96902.44
2022-12-09T08:45:18.107Z,96923.03
2022-12-09T08:47:47.589Z,96928.69
2022-12-09T08:50:17.748Z,96910.25
2022-12-09T08:52:47.213Z,96909.28
2022-12-09T08:55:16.430Z,96893.72
2022-12-09T08:57:45.820Z,96925.47
2022-12-09T09:00:16.359Z,96931.28
2022-12-09T09:02:45.910Z,96932.69
2022-12-09T09:05:16.485Z,96920.88
2022-12-09T09:07:45.773Z,96922.69
2022-12-09T09:10:15.343Z,96930.88
2022-12-09T09:12:45.605Z,96930.91
2022-12-09T09:15:15.839Z,96916.28
2022-12-09T09:17:51.339Z,96901.50
2022-12-09T09:20:21.613Z,96909.94
2022-12-09T09:22:51.041Z,96902.94
2022-12-09T09:25:20.655Z,96930.56
2022-12-09T09:27:49.863Z,96911.34
2022-12-09T09:30:19.097Z,96920.38
2022-12-09T09:32:50.281Z,96923.75
2022-12-09T09:35:22.139Z,96897.41
2022-12-09T09:37:56.123Z,96917.38
2022-12-09T09:40:26.206Z,96927.38
2022-12-09T09:42:58.832Z,96916.56
2022-12-09T09:45:29.429Z,96910.25
2022-12-09T09:48:04.014Z,96916.44
2022-12-09T09:50:57.844Z,96921.63
2022-12-09T09:53:34.307Z,96912.22
2022-12-09T09:56:17.043Z,96926.84
2022-12-09T09:58:51.047Z,96935.44
2022-12-09T10:01:28.011Z,96922.66
2022-12-09T10:04:35.617Z,96930.25
2022-12-09T10:07:14.469Z,96922.06
2022-12-09T10:10:15.402Z,96930.28
2022-12-09T10:13:07.216Z,96930.69
2022-12-09T10:15:59.681Z,96922.09
2022-12-09T10:18:36.355Z,96925.50
2022-12-09T10:21:28.828Z,96933.69
2022-12-09T10:24:05.556Z,96898.91
2022-12-09T10:26:35.299Z,96889.50
2022-12-09T10:29:29.102Z,96928.88
2022-12-09T10:32:01.784Z,96902.72
2022-12-09T10:34:31.917Z,96881.91
2022-12-09T10:37:01.241Z,96925.28
2022-12-09T10:39:35.639Z,96904.09
2022-12-09T10:42:33.215Z,96889.91
2022-12-09T10:45:08.729Z,96908.03
2022-12-09T10:47:38.072Z,96917.88
2022-12-09T10:50:08.915Z,96916.44
2022-12-09T10:52:51.408Z,96914.03
2022-12-09T10:55:39.832Z,96892.44
2022-12-09T10:58:24.926Z,96904.25
2022-12-09T11:01:06.102Z,96919.56
2022-12-09T11:03:48.173Z,96919.56
2022-12-09T11:06:29.581Z,96890.63
2022-12-09T11:09:04.114Z,96923.97
2022-12-09T11:11:51.992Z,96930.13
2022-12-09T11:14:26.549Z,96924.94
2022-12-09T11:16:59.737Z,96921.69
2022-12-09T11:19:36.240Z,96895.91
2022-12-09T11:22:15.188Z,96935.09
2022-12-09T11:24:44.943Z,96923.28
2022-12-09T11:27:35.467Z,96926.66
2022-12-09T11:30:21.919Z,96922.66
2022-12-09T11:33:06.774Z,96931.47
2022-12-09T11:35:56.562Z,96903.44
2022-12-09T11:38:34.564Z,96934.44
2022-12-09T11:41:06.302Z,96932.66
2022-12-09T11:43:43.572Z,96921.84
2022-12-09T11:46:15.216Z,96914.97
2022-12-09T11:49:04.856Z,96920.19
2022-12-09T11:51:38.415Z,96907.94
2022-12-09T11:54:28.427Z,96917.13
2022-12-09T11:57:00.092Z,96923.53
2022-12-09T11:59:38.324Z,96919.50
2022-12-09T12:02:08.107Z,96908.66
2022-12-09T12:05:06.774Z,96909.84
2022-12-09T12:07:48.193Z,96910.41
2022-12-09T12:10:26.576Z,96900.94
2022-12-09T12:13:16.732Z,96917.56
2022-12-09T12:16:11.062Z,96911.50
2022-12-09T12:19:06.044Z,96906.06
2022-12-09T12:21:52.034Z,96902.25
2022-12-09T12:25:25.449Z,96904.41
2022-12-09T12:28:02.871Z,96914.06
2022-12-09T12:30:49.949Z,96906.81
2022-12-09T12:36:30.365Z,96915.44
2022-12-09T12:39:02.227Z,96913.41
2022-12-09T12:41:47.245Z,96908.78
2022-12-09T12:44:37.106Z,96903.56
2022-12-09T12:47:35.197Z,96903.38
2022-12-09T12:50:38.357Z,96900.75
2022-12-09T12:53:27.029Z,96908.78
2022-12-09T12:55:55.789Z,96912.41
2022-12-09T12:58:43.061Z,96897.34
2022-12-09T13:01:35.008Z,96907.34
2022-12-09T13:04:13.819Z,96902.72
2022-12-09T13:06:59.543Z,96897.13
2022-12-09T13:09:52.948Z,96902.66
2022-12-09T13:12:57.435Z,96906.09
2022-12-09T13:15:43.089Z,96886.78
2022-12-09T13:18:30.184Z,96902.81
2022-12-09T13:21:02.207Z,96900.81
2022-12-09T13:23:37.352Z,96895.38
2022-12-09T13:26:47.454Z,96893.34
2022-12-09T13:29:47.027Z,96886.31
2022-12-09T13:32:49.713Z,96884.50
2022-12-09T13:35:42.115Z,96874.50
2022-12-09T13:38:37.130Z,96876.00
2022-12-09T13:42:02.638Z,96882.63
2022-12-09T13:44:33.747Z,96876.97
2022-12-09T13:47:26.218Z,96874.22
2022-12-09T13:50:03.347Z,96877.41
2022-12-09T13:52:56.228Z,96882.84
2022-12-09T13:55:33.003Z,96872.41
2022-12-09T13:58:04.519Z,96878.63
2022-12-09T14:00:35.221Z,96869.22
2022-12-09T14:03:46.895Z,96861.16
2022-12-09T14:06:27.241Z,96861.75
2022-12-09T14:09:03.262Z,96855.56
2022-12-09T14:11:48.242Z,96860.94
2022-12-09T14:14:27.219Z,96852.91
2022-12-09T14:17:00.466Z,96853.91
2022-12-09T14:19:32.029Z,96852.91
2022-12-09T14:22:21.413Z,96852.69
2022-12-09T14:25:20.803Z,96846.22
2022-12-09T14:28:13.099Z,96854.06
2022-12-09T14:31:03.422Z,96760.34
2022-12-09T14:33:43.855Z,96839.19
2022-12-09T14:36:16.097Z,96850.78
2022-12-09T14:39:22.982Z,96850.78
2022-12-09T14:42:24.907Z,96838.56
2022-12-09T14:45:14.391Z,96843.19
2022-12-09T14:47:48.752Z,96845.22
2022-12-09T14:50:29.511Z,96851.22
2022-12-09T14:53:06.363Z,96843.19
2022-12-09T14:55:40.535Z,96850.00
2022-12-09T14:58:19.995Z,96848.19
2022-12-09T15:01:01.224Z,96835.50
2022-12-09T15:03:35.507Z,96849.16
2022-12-09T15:06:17.551Z,96844.94
2022-12-09T15:08:47.419Z,96832.09
2022-12-09T15:11:23.060Z,96838.72
2022-12-09T15:13:54.735Z,96835.06
2022-12-09T15:16:27.025Z,96834.84
2022-12-09T15:18:56.551Z,96824.28
2022-12-09T15:21:32.971Z,96835.66
2022-12-09T15:24:01.984Z,96817.22
2022-12-09T15:26:34.698Z,96822.59
2022-12-09T15:29:06.107Z,96822.00
2022-12-09T15:31:35.574Z,96825.44
2022-12-09T15:34:23.165Z,96830.44
2022-12-09T15:37:03.325Z,96821.38
2022-12-09T15:39:42.811Z,96814.78
2022-12-09T15:42:16.473Z,96825.00
2022-12-09T15:45:03.752Z,96825.00
2022-12-09T15:47:47.721Z,96826.00
2022-12-09T15:50:24.704Z,96829.19
2022-12-09T15:53:10.596Z,96831.00
2022-12-09T15:55:50.621Z,96830.78
2022-12-09T15:58:30.221Z,96825.56
2022-12-09T16:01:00.158Z,96827.16
2022-12-09T16:03:32.964Z,96826.72
2022-12-09T16:06:09.862Z,96817.09
2022-12-09T16:08:44.893Z,96806.84
2022-12-09T16:11:13.612Z,96806.16
2022-12-09T16:13:59.685Z,96803.31
2022-12-09T16:16:40.619Z,96805.38
2022-12-09T16:19:41.203Z,96803.31
2022-12-09T16:22:16.240Z,96800.94
2022-12-09T16:25:14.500Z,96792.09
2022-12-09T16:27:51.190Z,96798.09
2022-12-09T16:30:22.212Z,96798.91
2022-12-09T16:32:59.178Z,96791.09
2022-12-09T16:35:29.911Z,96781.78
2022-12-09T16:37:58.584Z,96786.19
2022-12-09T16:40:28.491Z,96777.13
2022-12-09T16:43:17.147Z,96772.72
2022-12-09T16:45:48.144Z,96776.13
2022-12-09T16:48:18.435Z,96775.13
2022-12-09T16:50:55.032Z,96769.88
2022-12-09T16:53:29.450Z,96779.28
2022-12-09T16:56:00.860Z,96770.91
2022-12-09T16:58:32.123Z,96777.13
2022-12-09T17:01:04.000Z,96766.47
2022-12-09T17:03:38.691Z,96762.69
2022-12-09T17:06:08.513Z,96773.16
2022-12-09T17:08:38.529Z,96761.53
2022-12-09T17:11:07.755Z,96754.06
2022-12-09T17:13:36.505Z,96755.09
2022-12-09T17:16:06.896Z,96748.84
2022-12-09T17:18:36.478Z,96762.91
2022-12-09T17:21:08.312Z,96756.09
2022-12-09T17:23:39.988Z,96754.75
2022-12-09T17:26:13.517Z,96752.69
2022-12-09T17:28:43.697Z,96748.50
2022-12-09T17:31:18.499Z,96745.31
2022-12-09T17:33:47.711Z,96759.75
2022-12-09T17:36:18.390Z,96753.72
2022-12-09T17:38:47.676Z,96757.56
2022-12-09T17:41:21.087Z,96756.53
2022-12-09T17:43:50.196Z,96757.38
2022-12-09T17:46:19.850Z,96777.44
2022-12-09T17:48:48.655Z,96746.56
2022-12-09T17:51:20.680Z,96760.41
2022-12-09T17:53:50.897Z,96753.59
2022-12-09T17:56:22.467Z,96753.81
2022-12-09T17:59:01.437Z,96741.81
2022-12-09T18:01:34.594Z,96747.59
2022-12-09T18:04:09.366Z,96748.03
2022-12-09T18:06:46.529Z,96742.81
2022-12-09T18:09:20.393Z,96746.00
2022-12-09T18:11:49.570Z,96744.75
2022-12-09T18:14:19.841Z,96733.53
2022-12-09T18:16:49.767Z,96734.88
2022-12-09T18:19:21.275Z,96743.50
2022-12-09T18:21:50.025Z,96743.50
2022-12-09T18:24:19.219Z,96747.94
2022-12-09T18:26:49.132Z,96742.69
2022-12-09T18:29:18.002Z,96741.69
2022-12-09T18:31:47.044Z,96738.28
2022-12-09T18:34:16.288Z,96740.78
2022-12-09T18:36:45.184Z,96741.81
2022-12-09T18:39:13.990Z,96738.19
2022-12-09T18:41:45.160Z,96737.41
2022-12-09T18:44:16.185Z,96743.63
2022-12-09T18:46:47.866Z,96746.25
2022-12-09T18:49:24.618Z,96746.47
2022-12-09T18:51:53.645Z,96742.63
2022-12-09T18:54:28.912Z,96752.47
2022-12-09T18:56:57.695Z,96745.22
2022-12-09T18:59:26.686Z,96744.41
2022-12-09T19:01:56.512Z,96738.97
2022-12-09T19:04:28.573Z,96747.63
2022-12-09T19:07:00.949Z,96744.00
2022-12-09T19:09:34.036Z,96755.78
2022-12-09T19:12:37.866Z,96733.31
2022-12-09T19:14:53.717Z,96741.38
2022-12-09T19:17:22.611Z,96723.31
2022-12-09T19:19:51.436Z,96742.41
2022-12-09T19:22:20.249Z,96752.03
2022-12-09T19:24:48.996Z,96745.78
2022-12-09T19:27:17.762Z,96735.56
2022-12-09T19:29:46.576Z,96749.63
2022-12-09T19:32:50.974Z,96752.25
2022-12-09T19:35:04.794Z,96747.63
2022-12-09T19:37:33.560Z,96768.50
2022-12-09T19:40:02.298Z,96756.47
2022-12-09T19:42:32.035Z,96765.91
2022-12-09T19:45:02.340Z,96767.91
2022-12-09T19:47:32.930Z,96760.09
2022-12-09T19:50:01.648Z,96746.47
2022-12-09T19:52:31.512Z,96755.91
2022-12-09T19:55:00.529Z,96751.84
2022-12-09T19:57:29.423Z,96747.84
2022-12-09T19:59:58.532Z,96759.53
2022-12-09T20:02:28.098Z,96757.94
2022-12-09T20:04:57.011Z,96740.66
2022-12-09T20:07:25.998Z,96753.72
2022-12-09T20:09:54.762Z,96750.31
2022-12-09T20:12:23.539Z,96746.91
2022-12-09T20:14:52.300Z,96745.31
2022-12-09T20:17:21.000Z,96740.34
2022-12-09T20:19:49.858Z,96736.66
2022-12-09T20:22:18.621Z,96752.59
2022-12-09T20:24:47.746Z,96741.59
2022-12-09T20:27:16.874Z,96744.75
2022-12-09T20:29:45.641Z,96754.94
2022-12-09T20:32:14.467Z,96749.72
2022-12-09T20:34:43.352Z,96749.97
2022-12-09T20:37:12.396Z,96740.34
2022-12-09T20:39:41.214Z,96738.16
2022-12-09T20:42:09.976Z,96749.63
2022-12-09T20:44:38.730Z,96737.81
2022-12-09T20:47:07.607Z,96744.50
2022-12-09T20:49:36.452Z,96734.06
2022-12-09T20:52:05.259Z,96750.94
2022-12-09T20:54:34.043Z,96742.97
2022-12-09T20:57:02.835Z,96744.34
2022-12-09T20:59:31.821Z,96740.97
2022-12-09T21:02:01.825Z,96745.38
2022-12-09T21:04:30.784Z,96734.13
2022-12-09T21:06:59.600Z,96750.81
2022-12-09T21:09:29.934Z,96715.03
2022-12-09T21:11:59.005Z,96740.81
2022-12-09T21:14:32.620Z,96738.19
2022-12-09T21:17:01.844Z,96737.97
2022-12-09T21:19:33.046Z,96753.88
2022-12-09T21:22:01.959Z,96743.66
2022-12-09T21:24:30.746Z,96748.88
2022-12-09T21:26:59.554Z,96736.22
2022-12-09T21:29:32.251Z,96757.94
2022-12-09T21:32:02.416Z,96749.72
2022-12-09T21:34:31.427Z,96743.72
2022-12-09T21:37:00.317Z,96752.19
2022-12-09T21:39:29.269Z,96732.75
2022-12-09T21:41:58.091Z,96739.81
2022-12-09T21:44:27.655Z,96742.63
2022-12-09T21:46:56.534Z,96732.97
2022-12-09T21:49:25.389Z,96743.03
2022-12-09T21:51:54.211Z,96748.72
2022-12-09T21:54:23.035Z,96732.50
2022-12-09T21:56:51.805Z,96729.06
2022-12-09T21:59:20.741Z,96723.06
2022-12-09T22:01:50.701Z,96728.94
2022-12-09T22:04:19.801Z,96726.53
2022-12-09T22:06:50.470Z,96738.56
2022-12-09T22:09:21.660Z,96742.00
2022-12-09T22:11:50.507Z,96753.66
2022-12-09T22:14:19.283Z,96753.06
2022-12-09T22:16:48.265Z,96769.94
2022-12-09T22:19:19.735Z,96772.75
2022-12-09T22:21:49.672Z,96768.78
2022-12-09T22:24:19.673Z,96768.00
2022-12-09T22:26:48.633Z,96772.03
2022-12-09T22:29:18.224Z,96762.63
2022-12-09T22:31:47.321Z,96780.66
2022-12-09T22:34:19.367Z,96787.09
2022-12-09T22:36:50.167Z,96782.75
2022-12-09T22:39:22.257Z,96782.16
2022-12-09T22:41:51.419Z,96789.19
2022-12-09T22:44:21.225Z,96789.19
2022-12-09T22:46:50.132Z,96790.19
2022-12-09T22:49:19.728Z,96806.44
2022-12-09T22:51:48.916Z,96801.06
2022-12-09T22:54:18.442Z,96799.25
2022-12-09T22:56:47.240Z,96801.84
2022-12-09T22:59:16.513Z,96803.66
2022-12-09T23:01:50.771Z,96805.50
2022-12-09T23:04:22.444Z,96792.28
2022-12-09T23:06:51.918Z,96798.28
2022-12-09T23:09:25.591Z,96797.72
2022-12-09T23:11:54.427Z,96793.06
2022-12-09T23:14:23.199Z,96794.28
2022-12-09T23:16:52.075Z,96792.13
2022-12-09T23:19:20.886Z,96791.53
2022-12-09T23:21:49.652Z,96784.53
2022-12-09T23:24:24.306Z,96792.56
2022-12-09T23:26:56.530Z,96791.16
2022-12-09T23:29:25.442Z,96799.22
2022-12-09T23:31:54.513Z,96789.78
2022-12-09T23:34:24.118Z,96786.97
2022-12-09T23:36:52.908Z,96788.78
2022-12-09T23:39:21.652Z,96796.81
2022-12-09T23:41:50.386Z,96793.19
2022-12-09T23:44:20.215Z,96799.78
2022-12-09T23:46:49.590Z,96790.16
2022-12-09T23:49:18.853Z,96782.34
2022-12-09T23:51:48.492Z,96799.56
2022-12-09T23:54:18.933Z,96789.13
2022-12-09T23:56:51.397Z,96798.00
2022-12-09T23:59:22.532Z,96792.56
